sensor_id;sensor_type;location;lat;lon;timestamp;P1;durP1;ratioP1;P2;durP2;ratioP2
22774;SDS011;11554;51.106;3.684;2023-02-01T00:00:00;24.90;;;5.30;;
22774;SDS011;11554;51.106;3.684;2023-02-01T00:05:00;24.90;;;5.30;;
22774;SDS011;11554;51.106;3.684;2023-02-01T00:10:00;23.70;;;5.20;;
22774;SDS011;11554;51.106;3.684;2023-02-01T00:15:00;23.70;;;5.20;;
22774;SDS011;11554;51.106;3.684;2023-02-01T00:20:00;24.70;;;5.40;;
22774;SDS011;11554;51.106;3.684;2023-02-01T00:25:00;24.70;;;5.40;;
22774;SDS011;11554;51.106;3.684;2023-02-01T00:30:00;23.70;;;4.20;;
22774;SDS011;11554;51.106;3.684;2023-02-01T00:35:00;23.70;;;4.20;;
22774;SDS011;11554;51.106;3.684;2023-02-01T00:40:00;21.40;;;4.40;;
22774;SDS011;11554;51.106;3.684;2023-02-01T00:45:00;21.40;;;4.40;;
22774;SDS011;11554;51.106;3.684;2023-02-01T00:50:00;26.50;;;4.20;;
22774;SDS011;11554;51.106;3.684;2023-02-01T00:55:00;26.50;;;4.20;;
22774;SDS011;11554;51.106;3.684;2023-02-01T01:00:02;18.40;;;4.30;;
22774;SDS011;11554;51.106;3.684;2023-02-01T01:05:00;18.40;;;4.30;;
22774;SDS011;11554;51.106;3.684;2023-02-01T01:10:00;20.70;;;4.00;;
22774;SDS011;11554;51.106;3.684;2023-02-01T01:15:00;20.70;;;4.00;;
22774;SDS011;11554;51.106;3.684;2023-02-01T01:20:01;22.20;;;4.00;;
22774;SDS011;11554;51.106;3.684;2023-02-01T01:25:00;22.20;;;4.00;;
22774;SDS011;11554;51.106;3.684;2023-02-01T01:30:00;26.30;;;4.20;;
22774;SDS011;11554;51.106;3.684;2023-02-01T01:35:00;26.30;;;4.20;;
22774;SDS011;11554;51.106;3.684;2023-02-01T01:40:00;16.30;;;3.70;;
22774;SDS011;11554;51.106;3.684;2023-02-01T01:45:02;16.30;;;3.70;;
22774;SDS011;11554;51.106;3.684;2023-02-01T01:50:01;24.60;;;4.30;;
22774;SDS011;11554;51.106;3.684;2023-02-01T01:55:00;24.60;;;4.30;;
22774;SDS011;11554;51.106;3.684;2023-02-01T02:00:05;16.00;;;3.60;;
22774;SDS011;11554;51.106;3.684;2023-02-01T02:05:00;16.00;;;3.60;;
22774;SDS011;11554;51.106;3.684;2023-02-01T02:10:03;21.20;;;3.60;;
22774;SDS011;11554;51.106;3.684;2023-02-01T02:15:00;21.20;;;3.60;;
22774;SDS011;11554;51.106;3.684;2023-02-01T02:35:06;24.30;;;4.30;;
22774;SDS011;11554;51.106;3.684;2023-02-01T02:40:05;19.80;;;4.20;;
22774;SDS011;11554;51.106;3.684;2023-02-01T02:45:05;19.80;;;4.20;;
22774;SDS011;11554;51.106;3.684;2023-02-01T02:50:07;24.90;;;4.10;;
22774;SDS011;11554;51.106;3.684;2023-02-01T02:55:03;24.90;;;4.10;;
22774;SDS011;11554;51.106;3.684;2023-02-01T03:00:03;20.00;;;3.60;;
22774;SDS011;11554;51.106;3.684;2023-02-01T03:05:00;20.00;;;3.60;;
22774;SDS011;11554;51.106;3.684;2023-02-01T03:10:03;18.20;;;3.30;;
22774;SDS011;11554;51.106;3.684;2023-02-01T03:15:05;18.20;;;3.30;;
22774;SDS011;11554;51.106;3.684;2023-02-01T03:20:01;25.00;;;4.30;;
22774;SDS011;11554;51.106;3.684;2023-02-01T03:25:08;25.00;;;4.30;;
22774;SDS011;11554;51.106;3.684;2023-02-01T03:30:06;20.90;;;4.00;;
22774;SDS011;11554;51.106;3.684;2023-02-01T03:35:00;20.90;;;4.00;;
22774;SDS011;11554;51.106;3.684;2023-02-01T03:40:05;20.10;;;3.80;;
22774;SDS011;11554;51.106;3.684;2023-02-01T03:45:05;20.10;;;3.80;;
22774;SDS011;11554;51.106;3.684;2023-02-01T03:50:03;22.70;;;4.20;;
22774;SDS011;11554;51.106;3.684;2023-02-01T03:55:01;22.70;;;4.20;;
22774;SDS011;11554;51.106;3.684;2023-02-01T04:00:05;20.30;;;3.80;;
22774;SDS011;11554;51.106;3.684;2023-02-01T04:05:00;20.30;;;3.80;;
22774;SDS011;11554;51.106;3.684;2023-02-01T04:10:00;27.60;;;4.10;;
22774;SDS011;11554;51.106;3.684;2023-02-01T04:15:00;27.60;;;4.10;;
22774;SDS011;11554;51.106;3.684;2023-02-01T04:20:00;21.20;;;4.50;;
22774;SDS011;11554;51.106;3.684;2023-02-01T04:25:00;21.20;;;4.50;;
22774;SDS011;11554;51.106;3.684;2023-02-01T04:30:00;21.00;;;4.00;;
22774;SDS011;11554;51.106;3.684;2023-02-01T04:35:00;21.00;;;4.00;;
22774;SDS011;11554;51.106;3.684;2023-02-01T04:40:01;20.60;;;3.90;;
22774;SDS011;11554;51.106;3.684;2023-02-01T04:45:00;20.60;;;3.90;;
22774;SDS011;11554;51.106;3.684;2023-02-01T04:50:00;22.70;;;4.00;;
22774;SDS011;11554;51.106;3.684;2023-02-01T04:55:00;22.70;;;4.00;;
22774;SDS011;11554;51.106;3.684;2023-02-01T05:00:00;22.80;;;4.20;;
22774;SDS011;11554;51.106;3.684;2023-02-01T05:05:00;22.80;;;4.20;;
22774;SDS011;11554;51.106;3.684;2023-02-01T05:10:00;20.00;;;4.10;;
22774;SDS011;11554;51.106;3.684;2023-02-01T05:15:00;20.00;;;4.10;;
22774;SDS011;11554;51.106;3.684;2023-02-01T05:20:00;23.90;;;4.30;;
22774;SDS011;11554;51.106;3.684;2023-02-01T05:25:00;23.90;;;4.30;;
22774;SDS011;11554;51.106;3.684;2023-02-01T05:30:00;23.60;;;3.90;;
22774;SDS011;11554;51.106;3.684;2023-02-01T05:35:00;23.60;;;3.90;;
22774;SDS011;11554;51.106;3.684;2023-02-01T05:40:00;22.70;;;3.80;;
22774;SDS011;11554;51.106;3.684;2023-02-01T05:45:00;22.70;;;3.80;;
22774;SDS011;11554;51.106;3.684;2023-02-01T05:50:00;21.60;;;4.20;;
22774;SDS011;11554;51.106;3.684;2023-02-01T05:55:00;21.60;;;4.20;;
22774;SDS011;11554;51.106;3.684;2023-02-01T06:00:00;26.90;;;4.90;;
22774;SDS011;11554;51.106;3.684;2023-02-01T06:05:00;26.90;;;4.90;;
22774;SDS011;11554;51.106;3.684;2023-02-01T06:10:00;19.60;;;4.10;;
22774;SDS011;11554;51.106;3.684;2023-02-01T06:15:00;19.60;;;4.10;;
22774;SDS011;11554;51.106;3.684;2023-02-01T06:20:00;24.20;;;4.70;;
22774;SDS011;11554;51.106;3.684;2023-02-01T06:25:00;24.20;;;4.70;;
22774;SDS011;11554;51.106;3.684;2023-02-01T06:30:00;27.20;;;4.10;;
22774;SDS011;11554;51.106;3.684;2023-02-01T06:35:00;27.20;;;4.10;;
22774;SDS011;11554;51.106;3.684;2023-02-01T06:40:00;19.80;;;4.30;;
22774;SDS011;11554;51.106;3.684;2023-02-01T06:45:00;19.80;;;4.30;;
22774;SDS011;11554;51.106;3.684;2023-02-01T06:50:00;23.40;;;4.40;;
22774;SDS011;11554;51.106;3.684;2023-02-01T06:55:00;23.40;;;4.40;;
22774;SDS011;11554;51.106;3.684;2023-02-01T07:00:00;23.90;;;4.30;;
22774;SDS011;11554;51.106;3.684;2023-02-01T07:05:00;23.90;;;4.30;;
22774;SDS011;11554;51.106;3.684;2023-02-01T07:10:00;29.50;;;5.00;;
22774;SDS011;11554;51.106;3.684;2023-02-01T07:15:00;29.50;;;5.00;;
22774;SDS011;11554;51.106;3.684;2023-02-01T07:20:00;26.40;;;5.00;;
22774;SDS011;11554;51.106;3.684;2023-02-01T07:25:00;26.40;;;5.00;;
22774;SDS011;11554;51.106;3.684;2023-02-01T07:30:00;25.00;;;4.40;;
22774;SDS011;11554;51.106;3.684;2023-02-01T07:35:00;25.00;;;4.40;;
22774;SDS011;11554;51.106;3.684;2023-02-01T07:40:00;27.20;;;5.00;;
22774;SDS011;11554;51.106;3.684;2023-02-01T07:45:00;27.20;;;5.00;;
22774;SDS011;11554;51.106;3.684;2023-02-01T07:50:00;26.10;;;5.10;;
22774;SDS011;11554;51.106;3.684;2023-02-01T07:55:00;26.10;;;5.10;;
22774;SDS011;11554;51.106;3.684;2023-02-01T08:00:00;22.40;;;4.40;;
22774;SDS011;11554;51.106;3.684;2023-02-01T08:05:00;22.40;;;4.40;;
22774;SDS011;11554;51.106;3.684;2023-02-01T08:10:00;26.20;;;4.60;;
22774;SDS011;11554;51.106;3.684;2023-02-01T08:15:00;26.20;;;4.60;;
22774;SDS011;11554;51.106;3.684;2023-02-01T08:20:00;27.60;;;4.70;;
22774;SDS011;11554;51.106;3.684;2023-02-01T08:25:00;27.60;;;4.70;;
22774;SDS011;11554;51.106;3.684;2023-02-01T08:30:00;24.70;;;4.60;;
22774;SDS011;11554;51.106;3.684;2023-02-01T08:35:00;24.70;;;4.60;;
22774;SDS011;11554;51.106;3.684;2023-02-01T08:40:00;22.80;;;4.20;;
22774;SDS011;11554;51.106;3.684;2023-02-01T08:45:00;22.80;;;4.20;;
22774;SDS011;11554;51.106;3.684;2023-02-01T08:50:00;24.90;;;4.70;;
22774;SDS011;11554;51.106;3.684;2023-02-01T08:55:00;24.90;;;4.70;;
22774;SDS011;11554;51.106;3.684;2023-02-01T09:00:00;32.90;;;5.20;;
22774;SDS011;11554;51.106;3.684;2023-02-01T09:05:00;32.90;;;5.20;;
22774;SDS011;11554;51.106;3.684;2023-02-01T09:10:01;29.70;;;4.90;;
22774;SDS011;11554;51.106;3.684;2023-02-01T09:15:01;29.70;;;4.90;;
22774;SDS011;11554;51.106;3.684;2023-02-01T09:20:00;26.70;;;4.60;;
22774;SDS011;11554;51.106;3.684;2023-02-01T09:25:00;26.70;;;4.60;;
22774;SDS011;11554;51.106;3.684;2023-02-01T09:30:00;21.70;;;4.00;;
22774;SDS011;11554;51.106;3.684;2023-02-01T09:35:00;21.70;;;4.00;;
22774;SDS011;11554;51.106;3.684;2023-02-01T09:40:00;17.30;;;2.80;;
22774;SDS011;11554;51.106;3.684;2023-02-01T09:45:12;17.30;;;2.80;;
22774;SDS011;11554;51.106;3.684;2023-02-01T09:50:04;12.90;;;2.70;;
22774;SDS011;11554;51.106;3.684;2023-02-01T09:55:03;12.90;;;2.70;;
22774;SDS011;11554;51.106;3.684;2023-02-01T10:00:03;18.20;;;2.80;;
22774;SDS011;11554;51.106;3.684;2023-02-01T10:05:01;18.20;;;2.80;;
22774;SDS011;11554;51.106;3.684;2023-02-01T10:10:03;15.90;;;2.40;;
22774;SDS011;11554;51.106;3.684;2023-02-01T10:15:13;15.90;;;2.40;;
22774;SDS011;11554;51.106;3.684;2023-02-01T10:20:07;19.00;;;2.90;;
22774;SDS011;11554;51.106;3.684;2023-02-01T10:25:07;19.00;;;2.90;;
22774;SDS011;11554;51.106;3.684;2023-02-01T10:30:06;17.60;;;2.80;;
22774;SDS011;11554;51.106;3.684;2023-02-01T10:35:04;17.60;;;2.80;;
22774;SDS011;11554;51.106;3.684;2023-02-01T10:40:05;8.00;;;1.70;;
22774;SDS011;11554;51.106;3.684;2023-02-01T10:45:02;8.00;;;1.70;;
22774;SDS011;11554;51.106;3.684;2023-02-01T10:50:08;12.70;;;2.30;;
22774;SDS011;11554;51.106;3.684;2023-02-01T11:00:03;14.70;;;2.40;;
22774;SDS011;11554;51.106;3.684;2023-02-01T11:05:01;14.70;;;2.40;;
22774;SDS011;11554;51.106;3.684;2023-02-01T11:10:00;15.00;;;2.80;;
22774;SDS011;11554;51.106;3.684;2023-02-01T11:15:14;15.00;;;2.80;;
22774;SDS011;11554;51.106;3.684;2023-02-01T11:20:02;11.90;;;2.10;;
22774;SDS011;11554;51.106;3.684;2023-02-01T11:25:08;11.90;;;2.10;;
22774;SDS011;11554;51.106;3.684;2023-02-01T11:30:01;10.60;;;2.30;;
22774;SDS011;11554;51.106;3.684;2023-02-01T11:35:03;10.60;;;2.30;;
22774;SDS011;11554;51.106;3.684;2023-02-01T11:40:08;11.00;;;1.80;;
22774;SDS011;11554;51.106;3.684;2023-02-01T11:45:18;11.00;;;1.80;;
22774;SDS011;11554;51.106;3.684;2023-02-01T11:50:05;16.70;;;2.50;;
22774;SDS011;11554;51.106;3.684;2023-02-01T11:55:13;16.70;;;2.50;;
22774;SDS011;11554;51.106;3.684;2023-02-01T12:00:13;10.80;;;2.20;;
22774;SDS011;11554;51.106;3.684;2023-02-01T12:05:12;10.80;;;2.20;;
22774;SDS011;11554;51.106;3.684;2023-02-01T12:10:09;9.90;;;2.20;;
22774;SDS011;11554;51.106;3.684;2023-02-01T12:15:16;9.90;;;2.20;;
22774;SDS011;11554;51.106;3.684;2023-02-01T12:20:12;14.20;;;1.90;;
22774;SDS011;11554;51.106;3.684;2023-02-01T12:25:14;14.20;;;1.90;;
22774;SDS011;11554;51.106;3.684;2023-02-01T12:30:19;9.90;;;1.60;;
22774;SDS011;11554;51.106;3.684;2023-02-01T12:35:13;9.90;;;1.60;;
22774;SDS011;11554;51.106;3.684;2023-02-01T12:40:11;14.00;;;2.20;;
22774;SDS011;11554;51.106;3.684;2023-02-01T12:45:10;14.00;;;2.20;;
22774;SDS011;11554;51.106;3.684;2023-02-01T12:50:03;7.70;;;1.40;;
22774;SDS011;11554;51.106;3.684;2023-02-01T12:55:06;7.70;;;1.40;;
22774;SDS011;11554;51.106;3.684;2023-02-01T13:00:07;10.90;;;2.10;;
22774;SDS011;11554;51.106;3.684;2023-02-01T13:05:05;10.90;;;2.10;;
22774;SDS011;11554;51.106;3.684;2023-02-01T13:10:03;6.00;;;1.60;;
22774;SDS011;11554;51.106;3.684;2023-02-01T13:15:03;6.00;;;1.60;;
22774;SDS011;11554;51.106;3.684;2023-02-01T13:20:04;11.60;;;2.00;;
22774;SDS011;11554;51.106;3.684;2023-02-01T13:25:03;11.60;;;2.00;;
22774;SDS011;11554;51.106;3.684;2023-02-01T13:30:03;9.00;;;2.30;;
22774;SDS011;11554;51.106;3.684;2023-02-01T13:35:17;9.00;;;2.30;;
22774;SDS011;11554;51.106;3.684;2023-02-01T13:40:16;7.90;;;2.20;;
22774;SDS011;11554;51.106;3.684;2023-02-01T13:45:03;7.90;;;2.20;;
22774;SDS011;11554;51.106;3.684;2023-02-01T13:50:02;8.40;;;2.20;;
22774;SDS011;11554;51.106;3.684;2023-02-01T13:55:03;8.40;;;2.20;;
22774;SDS011;11554;51.106;3.684;2023-02-01T14:00:22;12.90;;;2.90;;
22774;SDS011;11554;51.106;3.684;2023-02-01T14:05:00;12.90;;;2.90;;
22774;SDS011;11554;51.106;3.684;2023-02-01T14:15:19;13.90;;;2.90;;
22774;SDS011;11554;51.106;3.684;2023-02-01T14:25:00;11.90;;;2.30;;
22774;SDS011;11554;51.106;3.684;2023-02-01T14:30:05;11.10;;;2.20;;
22774;SDS011;11554;51.106;3.684;2023-02-01T14:35:04;11.10;;;2.20;;
22774;SDS011;11554;51.106;3.684;2023-02-01T14:40:02;12.30;;;2.80;;
22774;SDS011;11554;51.106;3.684;2023-02-01T14:50:12;18.80;;;3.60;;
22774;SDS011;11554;51.106;3.684;2023-02-01T14:55:05;18.80;;;3.60;;
22774;SDS011;11554;51.106;3.684;2023-02-01T15:00:07;16.10;;;2.50;;
22774;SDS011;11554;51.106;3.684;2023-02-01T15:05:00;16.10;;;2.50;;
22774;SDS011;11554;51.106;3.684;2023-02-01T15:10:02;13.70;;;2.60;;
22774;SDS011;11554;51.106;3.684;2023-02-01T15:15:11;13.70;;;2.60;;
22774;SDS011;11554;51.106;3.684;2023-02-01T15:20:02;17.50;;;3.60;;
22774;SDS011;11554;51.106;3.684;2023-02-01T15:25:00;17.50;;;3.60;;
22774;SDS011;11554;51.106;3.684;2023-02-01T15:30:05;20.70;;;4.10;;
22774;SDS011;11554;51.106;3.684;2023-02-01T15:35:01;20.70;;;4.10;;
22774;SDS011;11554;51.106;3.684;2023-02-01T15:40:14;15.90;;;3.00;;
22774;SDS011;11554;51.106;3.684;2023-02-01T15:45:00;15.90;;;3.00;;
22774;SDS011;11554;51.106;3.684;2023-02-01T15:50:00;20.00;;;3.70;;
22774;SDS011;11554;51.106;3.684;2023-02-01T15:55:03;20.00;;;3.70;;
22774;SDS011;11554;51.106;3.684;2023-02-01T16:00:03;10.70;;;2.30;;
22774;SDS011;11554;51.106;3.684;2023-02-01T16:05:01;10.70;;;2.30;;
22774;SDS011;11554;51.106;3.684;2023-02-01T16:10:02;23.90;;;3.60;;
22774;SDS011;11554;51.106;3.684;2023-02-01T16:15:00;23.90;;;3.60;;
22774;SDS011;11554;51.106;3.684;2023-02-01T16:20:00;17.40;;;3.30;;
22774;SDS011;11554;51.106;3.684;2023-02-01T16:25:00;17.40;;;3.30;;
22774;SDS011;11554;51.106;3.684;2023-02-01T16:30:00;22.50;;;4.10;;
22774;SDS011;11554;51.106;3.684;2023-02-01T16:35:00;22.50;;;4.10;;
22774;SDS011;11554;51.106;3.684;2023-02-01T16:40:00;21.60;;;4.00;;
22774;SDS011;11554;51.106;3.684;2023-02-01T16:45:00;21.60;;;4.00;;
22774;SDS011;11554;51.106;3.684;2023-02-01T16:50:00;18.20;;;3.60;;
22774;SDS011;11554;51.106;3.684;2023-02-01T16:55:00;18.20;;;3.60;;
22774;SDS011;11554;51.106;3.684;2023-02-01T17:00:00;20.80;;;4.50;;
22774;SDS011;11554;51.106;3.684;2023-02-01T17:05:00;20.80;;;4.50;;
22774;SDS011;11554;51.106;3.684;2023-02-01T17:10:01;20.00;;;4.70;;
22774;SDS011;11554;51.106;3.684;2023-02-01T17:15:00;20.00;;;4.70;;
22774;SDS011;11554;51.106;3.684;2023-02-01T17:20:00;24.70;;;4.80;;
22774;SDS011;11554;51.106;3.684;2023-02-01T17:25:00;24.70;;;4.80;;
22774;SDS011;11554;51.106;3.684;2023-02-01T17:30:00;24.50;;;4.90;;
22774;SDS011;11554;51.106;3.684;2023-02-01T17:35:00;24.50;;;4.90;;
22774;SDS011;11554;51.106;3.684;2023-02-01T17:40:01;24.30;;;4.80;;
22774;SDS011;11554;51.106;3.684;2023-02-01T17:45:10;24.30;;;4.80;;
22774;SDS011;11554;51.106;3.684;2023-02-01T17:50:00;26.60;;;4.80;;
22774;SDS011;11554;51.106;3.684;2023-02-01T17:55:00;26.60;;;4.80;;
22774;SDS011;11554;51.106;3.684;2023-02-01T18:00:00;27.70;;;5.30;;
22774;SDS011;11554;51.106;3.684;2023-02-01T18:05:00;27.70;;;5.30;;
22774;SDS011;11554;51.106;3.684;2023-02-01T18:10:00;25.80;;;5.40;;
22774;SDS011;11554;51.106;3.684;2023-02-01T18:15:00;25.80;;;5.40;;
22774;SDS011;11554;51.106;3.684;2023-02-01T18:20:00;25.20;;;5.30;;
22774;SDS011;11554;51.106;3.684;2023-02-01T18:25:00;25.20;;;5.30;;
22774;SDS011;11554;51.106;3.684;2023-02-01T18:30:00;28.00;;;5.40;;
22774;SDS011;11554;51.106;3.684;2023-02-01T18:35:00;28.00;;;5.40;;
22774;SDS011;11554;51.106;3.684;2023-02-01T18:40:00;23.30;;;4.70;;
22774;SDS011;11554;51.106;3.684;2023-02-01T18:45:00;23.30;;;4.70;;
22774;SDS011;11554;51.106;3.684;2023-02-01T18:50:00;22.90;;;4.60;;
22774;SDS011;11554;51.106;3.684;2023-02-01T18:55:00;22.90;;;4.60;;
22774;SDS011;11554;51.106;3.684;2023-02-01T19:00:00;25.80;;;4.90;;
22774;SDS011;11554;51.106;3.684;2023-02-01T19:05:00;25.80;;;4.90;;
22774;SDS011;11554;51.106;3.684;2023-02-01T19:10:00;21.60;;;4.60;;
22774;SDS011;11554;51.106;3.684;2023-02-01T19:15:01;21.60;;;4.60;;
22774;SDS011;11554;51.106;3.684;2023-02-01T19:20:00;29.00;;;6.50;;
22774;SDS011;11554;51.106;3.684;2023-02-01T19:25:00;29.00;;;6.50;;
22774;SDS011;11554;51.106;3.684;2023-02-01T19:30:01;25.40;;;5.20;;
22774;SDS011;11554;51.106;3.684;2023-02-01T19:35:00;25.40;;;5.20;;
22774;SDS011;11554;51.106;3.684;2023-02-01T19:40:00;25.10;;;4.50;;
22774;SDS011;11554;51.106;3.684;2023-02-01T19:45:01;25.10;;;4.50;;
22774;SDS011;11554;51.106;3.684;2023-02-01T19:50:01;23.60;;;6.00;;
22774;SDS011;11554;51.106;3.684;2023-02-01T19:55:00;23.60;;;6.00;;
22774;SDS011;11554;51.106;3.684;2023-02-01T20:00:00;21.30;;;5.20;;
22774;SDS011;11554;51.106;3.684;2023-02-01T20:05:00;21.30;;;5.20;;
22774;SDS011;11554;51.106;3.684;2023-02-01T20:10:00;25.00;;;5.40;;
22774;SDS011;11554;51.106;3.684;2023-02-01T20:15:00;25.00;;;5.40;;
22774;SDS011;11554;51.106;3.684;2023-02-01T20:20:00;25.10;;;5.60;;
22774;SDS011;11554;51.106;3.684;2023-02-01T20:25:00;25.10;;;5.60;;
22774;SDS011;11554;51.106;3.684;2023-02-01T20:30:00;28.00;;;5.10;;
22774;SDS011;11554;51.106;3.684;2023-02-01T20:35:00;28.00;;;5.10;;
22774;SDS011;11554;51.106;3.684;2023-02-01T20:40:00;28.10;;;5.20;;
22774;SDS011;11554;51.106;3.684;2023-02-01T20:45:00;28.10;;;5.20;;
22774;SDS011;11554;51.106;3.684;2023-02-01T20:50:01;24.30;;;5.00;;
22774;SDS011;11554;51.106;3.684;2023-02-01T20:55:00;24.30;;;5.00;;
22774;SDS011;11554;51.106;3.684;2023-02-01T21:00:00;25.10;;;5.60;;
22774;SDS011;11554;51.106;3.684;2023-02-01T21:05:00;25.10;;;5.60;;
22774;SDS011;11554;51.106;3.684;2023-02-01T21:10:00;29.00;;;6.10;;
22774;SDS011;11554;51.106;3.684;2023-02-01T21:15:01;29.00;;;6.10;;
22774;SDS011;11554;51.106;3.684;2023-02-01T21:20:00;21.90;;;4.80;;
22774;SDS011;11554;51.106;3.684;2023-02-01T21:25:01;21.90;;;4.80;;
22774;SDS011;11554;51.106;3.684;2023-02-01T21:30:00;20.70;;;3.90;;
22774;SDS011;11554;51.106;3.684;2023-02-01T21:35:00;20.70;;;3.90;;
22774;SDS011;11554;51.106;3.684;2023-02-01T21:40:00;20.10;;;4.10;;
22774;SDS011;11554;51.106;3.684;2023-02-01T21:45:00;20.10;;;4.10;;
22774;SDS011;11554;51.106;3.684;2023-02-01T21:50:00;18.10;;;3.70;;
22774;SDS011;11554;51.106;3.684;2023-02-01T21:55:00;18.10;;;3.70;;
22774;SDS011;11554;51.106;3.684;2023-02-01T22:00:00;11.60;;;2.00;;
22774;SDS011;11554;51.106;3.684;2023-02-01T22:05:00;11.60;;;2.00;;
22774;SDS011;11554;51.106;3.684;2023-02-01T22:10:00;13.40;;;3.10;;
22774;SDS011;11554;51.106;3.684;2023-02-01T22:15:00;13.40;;;3.10;;
22774;SDS011;11554;51.106;3.684;2023-02-01T22:20:00;12.60;;;2.60;;
22774;SDS011;11554;51.106;3.684;2023-02-01T22:25:00;12.60;;;2.60;;
22774;SDS011;11554;51.106;3.684;2023-02-01T22:30:00;18.40;;;3.20;;
22774;SDS011;11554;51.106;3.684;2023-02-01T22:35:00;18.40;;;3.20;;
22774;SDS011;11554;51.106;3.684;2023-02-01T22:40:01;19.00;;;3.60;;
22774;SDS011;11554;51.106;3.684;2023-02-01T22:45:00;19.00;;;3.60;;
22774;SDS011;11554;51.106;3.684;2023-02-01T22:50:00;20.50;;;3.40;;
22774;SDS011;11554;51.106;3.684;2023-02-01T22:55:00;20.50;;;3.40;;
22774;SDS011;11554;51.106;3.684;2023-02-01T23:00:00;25.80;;;4.10;;
22774;SDS011;11554;51.106;3.684;2023-02-01T23:05:00;25.80;;;4.10;;
22774;SDS011;11554;51.106;3.684;2023-02-01T23:10:00;19.90;;;3.30;;
22774;SDS011;11554;51.106;3.684;2023-02-01T23:15:00;19.90;;;3.30;;
22774;SDS011;11554;51.106;3.684;2023-02-01T23:20:00;17.80;;;3.90;;
22774;SDS011;11554;51.106;3.684;2023-02-01T23:25:01;17.80;;;3.90;;
22774;SDS011;11554;51.106;3.684;2023-02-01T23:30:00;20.60;;;3.60;;
22774;SDS011;11554;51.106;3.684;2023-02-01T23:35:01;20.60;;;3.60;;
22774;SDS011;11554;51.106;3.684;2023-02-01T23:40:00;19.00;;;4.20;;
22774;SDS011;11554;51.106;3.684;2023-02-01T23:45:00;19.00;;;4.20;;
22774;SDS011;11554;51.106;3.684;2023-02-01T23:50:00;22.00;;;4.00;;
22774;SDS011;11554;51.106;3.684;2023-02-01T23:55:00;22.00;;;4.00;;
